Time;durP1;ratioP1;P1;durP2;ratioP2;P2;SDS_P1;SDS_P2;PMS_P1;PMS_P2;Temp;Humidity;BMP_temperature;BMP_pressure;BME280_temperature;BME280_humidity;BME280_pressure;Samples;Min_cycle;Max_cycle;Signal;HPM_P1;HPM_P2
2022/06/13 00:01:34;;;;;;;20.48;5.40;;;;;;;;;;4975323;28;20169;-59
2022/06/13 00:04:01;;;;;;;25.07;5.30;;;;;;;;;;4975131;28;20065;-59
2022/06/13 00:06:28;;;;;;;27.95;5.40;;;;;;;;;;4972615;28;20097;-59
2022/06/13 00:09:01;;;;;;;22.30;4.68;;;;;;;;;;4974727;28;20490;-59
2022/06/13 00:11:27;;;;;;;22.33;4.75;;;;;;;;;;4973570;28;20608;-59
2022/06/13 00:13:55;;;;;;;22.23;4.20;;;;;;;;;;4972440;28;20102;-59
2022/06/13 00:16:27;;;;;;;22.77;5.03;;;;;;;;;;4972925;28;20138;-59
2022/06/13 00:18:54;;;;;;;24.20;5.27;;;;;;;;;;4976449;28;20062;-60
2022/06/13 00:21:22;;;;;;;18.93;5.23;;;;;;;;;;4973895;28;20157;-59
2022/06/13 00:23:56;;;;;;;19.88;4.60;;;;;;;;;;4974094;28;20070;-56
2022/06/13 00:26:24;;;;;;;20.88;5.47;;;;;;;;;;4972170;28;20082;-48
2022/06/13 00:28:51;;;;;;;27.60;4.97;;;;;;;;;;4975705;28;20053;-60
2022/06/13 00:31:25;;;;;;;30.30;5.43;;;;;;;;;;4974315;28;20050;-60
2022/06/13 00:33:51;;;;;;;26.38;4.97;;;;;;;;;;4978345;28;20054;-60
2022/06/13 00:36:21;;;;;;;24.67;4.43;;;;;;;;;;4973865;28;20085;-60
2022/06/13 00:38:55;;;;;;;36.08;5.20;;;;;;;;;;4977760;28;20082;-59
2022/06/13 00:41:24;;;;;;;25.42;4.38;;;;;;;;;;4973620;28;20049;-59
2022/06/13 00:43:51;;;;;;;28.27;4.50;;;;;;;;;;4976278;28;20134;-45
2022/06/13 00:46:30;;;;;;;24.27;4.72;;;;;;;;;;4973295;28;20050;-46
2022/06/13 00:49:16;;;;;;;20.52;4.60;;;;;;;;;;4976621;28;20051;-66
2022/06/13 00:52:26;;;;;;;23.42;4.40;;;;;;;;;;4974642;28;20138;-66
2022/06/13 00:54:53;;;;;;;20.02;4.60;;;;;;;;;;4968051;28;20080;-66
2022/06/13 00:57:28;;;;;;;22.48;4.70;;;;;;;;;;4975410;28;20055;-66
2022/06/13 00:59:56;;;;;;;23.17;5.00;;;;;;;;;;4976718;28;20086;-66
2022/06/13 01:02:24;;;;;;;21.05;4.70;;;;;;;;;;4974728;28;20078;-50
2022/06/13 01:04:57;;;;;;;27.02;4.82;;;;;;;;;;4975253;28;20057;-65
2022/06/13 01:07:23;;;;;;;20.58;4.50;;;;;;;;;;4974847;28;20117;-67
2022/06/13 01:12:41;;;;;;;27.98;4.65;;;;;;;;;;4974725;28;20110;-66
2022/06/13 01:15:23;;;;;;;22.20;4.28;;;;;;;;;;4976324;28;20636;-67
2022/06/13 01:18:21;;;;;;;23.15;4.40;;;;;;;;;;4975838;28;20313;-66
2022/06/13 01:20:58;;;;;;;32.70;4.88;;;;;;;;;;4974180;28;20120;-67
2022/06/13 01:23:34;;;;;;;26.38;4.30;;;;;;;;;;4974738;28;20070;-66
2022/06/13 01:26:19;;;;;;;24.17;4.40;;;;;;;;;;4975477;28;20435;-50
2022/06/13 01:29:31;;;;;;;20.10;4.45;;;;;;;;;;4973820;28;20137;-48
2022/06/13 01:32:00;;;;;;;22.63;4.10;;;;;;;;;;4899296;29;20245;-49
2022/06/13 01:34:38;;;;;;;24.60;4.40;;;;;;;;;;4898323;29;20686;-51
2022/06/13 01:37:05;;;;;;;27.42;4.72;;;;;;;;;;4939037;28;20515;-50
2022/06/13 01:39:40;;;;;;;22.13;4.50;;;;;;;;;;4971881;28;20117;-50
2022/06/13 01:42:16;;;;;;;23.27;4.55;;;;;;;;;;4973085;28;20074;-64
2022/06/13 01:45:03;;;;;;;28.77;5.10;;;;;;;;;;4973938;28;20489;-63
2022/06/13 01:47:54;;;;;;;25.98;4.43;;;;;;;;;;4956180;28;20070;-64
2022/06/13 01:50:24;;;;;;;32.35;5.25;;;;;;;;;;4976417;28;20082;-62
2022/06/13 01:53:15;;;;;;;32.28;5.53;;;;;;;;;;4974033;28;20560;-63
2022/06/13 01:55:45;;;;;;;23.35;4.18;;;;;;;;;;4974851;28;20092;-64
2022/06/13 01:58:26;;;;;;;26.23;4.70;;;;;;;;;;4978133;28;20082;-64
2022/06/13 02:00:59;;;;;;;27.70;4.72;;;;;;;;;;4979894;28;20077;-62
2022/06/13 02:03:43;;;;;;;25.95;4.97;;;;;;;;;;4977323;28;20086;-59
2022/06/13 02:06:14;;;;;;;30.15;5.07;;;;;;;;;;4977566;28;20058;-59
2022/06/13 02:08:50;;;;;;;30.73;4.80;;;;;;;;;;4978553;28;20429;-58
2022/06/13 02:11:20;;;;;;;25.83;4.57;;;;;;;;;;4973588;28;20054;-59
2022/06/13 02:13:53;;;;;;;22.83;4.23;;;;;;;;;;4979552;28;20054;-59
2022/06/13 02:16:25;;;;;;;24.45;5.25;;;;;;;;;;4977200;28;20078;-59
2022/06/13 02:18:59;;;;;;;28.85;4.63;;;;;;;;;;4978195;28;20050;-66
2022/06/13 02:21:51;;;;;;;28.50;3.85;;;;;;;;;;4975695;28;20477;-51
2022/06/13 02:24:19;;;;;;;25.63;4.82;;;;;;;;;;4975552;28;20047;-59
2022/06/13 02:26:54;;;;;;;21.92;4.38;;;;;;;;;;4977603;28;20055;-59
2022/06/13 02:29:25;;;;;;;21.88;4.30;;;;;;;;;;4977023;28;20051;-58
2022/06/13 02:31:54;;;;;;;27.48;4.28;;;;;;;;;;4978160;28;20149;-59
2022/06/13 02:34:37;;;;;;;24.40;4.28;;;;;;;;;;4959040;28;20518;-59
2022/06/13 02:37:13;;;;;;;17.77;3.92;;;;;;;;;;4975589;28;20089;-58
2022/06/13 02:39:49;;;;;;;21.90;4.10;;;;;;;;;;4976979;28;20105;-59
2022/06/13 02:42:20;;;;;;;18.95;3.72;;;;;;;;;;4977986;28;20074;-58
2022/06/13 02:44:55;;;;;;;24.40;4.35;;;;;;;;;;4977760;28;20109;-58
2022/06/13 02:47:30;;;;;;;23.83;4.60;;;;;;;;;;4977056;28;20140;-59
2022/06/13 02:50:31;;;;;;;21.02;4.25;;;;;;;;;;4976630;28;20086;-59
2022/06/13 02:53:15;;;;;;;20.83;4.32;;;;;;;;;;4961595;28;20090;-59
2022/06/13 02:55:57;;;;;;;17.50;3.80;;;;;;;;;;4959737;28;20541;-58
2022/06/13 02:58:29;;;;;;;20.73;3.80;;;;;;;;;;4956578;28;20142;-53
2022/06/13 03:01:02;;;;;;;20.42;3.35;;;;;;;;;;4958319;28;20078;-46
2022/06/13 03:03:29;;;;;;;18.58;3.47;;;;;;;;;;4956496;28;20057;-46
2022/06/13 03:05:55;;;;;;;18.25;3.40;;;;;;;;;;4955680;28;20085;-48
2022/06/13 03:08:49;;;;;;;14.23;3.55;;;;;;;;;;4957817;28;20093;-46
2022/06/13 03:11:16;;;;;;;11.10;3.22;;;;;;;;;;4955261;28;20093;-48
2022/06/13 03:13:50;;;;;;;15.10;3.58;;;;;;;;;;4957304;28;20085;-47
2022/06/13 03:16:17;;;;;;;;;;;;;;;;;;4957699;28;20063;-49
2022/06/13 03:18:48;;;;;;;16.20;3.47;;;;;;;;;;4954408;28;19926;-45
2022/06/13 03:21:28;;;;;;;18.40;3.30;;;;;;;;;;4958614;28;20086;-51
2022/06/13 03:24:01;;;;;;;14.38;3.25;;;;;;;;;;4953521;28;20130;-51
2022/06/13 03:26:38;;;;;;;20.95;3.28;;;;;;;;;;4954685;28;20090;-50
2022/06/13 03:29:10;;;;;;;15.48;3.70;;;;;;;;;;4959737;28;20525;-52
2022/06/13 03:31:46;;;;;;;18.77;3.20;;;;;;;;;;4957340;28;20150;-47
2022/06/13 03:34:24;;;;;;;14.63;3.10;;;;;;;;;;4955345;28;20094;-47
2022/06/13 03:37:03;;;;;;;11.13;2.70;;;;;;;;;;4955223;28;20141;-59
2022/06/13 03:39:42;;;;;;;18.50;3.50;;;;;;;;;;4954248;28;20059;-60
2022/06/13 03:42:18;;;;;;;15.70;3.00;;;;;;;;;;4957613;28;20075;-59
2022/06/13 03:44:51;;;;;;;15.95;2.85;;;;;;;;;;4951208;28;20078;-59
2022/06/13 03:47:33;;;;;;;17.17;3.50;;;;;;;;;;4955601;28;20078;-59
2022/06/13 03:50:11;;;;;;;13.82;3.35;;;;;;;;;;4957577;28;20108;-57
2022/06/13 03:52:54;;;;;;;19.52;3.53;;;;;;;;;;4974087;28;20090;-60
2022/06/13 03:55:27;;;;;;;14.10;3.03;;;;;;;;;;4975597;28;20085;-46
2022/06/13 03:58:07;;;;;;;16.27;3.92;;;;;;;;;;4977735;28;20062;-53
2022/06/13 04:00:38;;;;;;;14.52;2.97;;;;;;;;;;4975500;28;20695;-53
2022/06/13 04:03:11;;;;;;;;;;;;;;;;;;4976339;28;20151;-52
2022/06/13 04:05:42;;;;;;;14.23;2.78;;;;;;;;;;4974110;28;19969;-48
2022/06/13 04:08:10;;;;;;;17.88;3.33;;;;;;;;;;4974348;28;20051;-50
2022/06/13 04:10:51;;;;;;;17.58;3.80;;;;;;;;;;4970784;28;20093;-54
2022/06/13 04:13:24;;;;;;;16.48;3.60;;;;;;;;;;4970709;28;20043;-59
2022/06/13 04:16:06;;;;;;;16.40;3.15;;;;;;;;;;4977062;28;20491;-60
2022/06/13 04:18:34;;;;;;;14.98;2.95;;;;;;;;;;4980538;28;20058;-48
2022/06/13 04:21:18;;;;;;;13.93;3.13;;;;;;;;;;4974401;28;20047;-46
2022/06/13 04:24:09;;;;;;;13.55;2.80;;;;;;;;;;4973818;28;20418;-47
2022/06/13 04:27:00;;;;;;;18.45;4.03;;;;;;;;;;4976405;28;20089;-47
2022/06/13 04:29:44;;;;;;;14.07;3.35;;;;;;;;;;4977919;28;20078;-47
2022/06/13 04:32:21;;;;;;;16.77;3.00;;;;;;;;;;4974226;28;20184;-59
2022/06/13 04:34:49;;;;;;;14.75;3.33;;;;;;;;;;4975647;28;20717;-49
2022/06/13 04:37:16;;;;;;;18.83;3.08;;;;;;;;;;4974778;28;20073;-66
2022/06/13 04:39:51;;;;;;;21.13;3.35;;;;;;;;;;4974831;28;20051;-66
2022/06/13 04:42:21;;;;;;;19.95;3.80;;;;;;;;;;4974019;28;20046;-65
2022/06/13 04:44:49;;;;;;;18.40;3.28;;;;;;;;;;4971101;28;20148;-66
2022/06/13 04:47:27;;;;;;;14.68;3.22;;;;;;;;;;4973186;28;20051;-63
2022/06/13 04:49:55;;;;;;;17.20;3.63;;;;;;;;;;4972696;28;20050;-65
2022/06/13 04:52:44;;;;;;;13.82;2.60;;;;;;;;;;4974147;28;20140;-58
2022/06/13 04:55:27;;;;;;;18.95;4.07;;;;;;;;;;4976508;28;20042;-64
2022/06/13 04:58:01;;;;;;;16.98;3.58;;;;;;;;;;4974150;28;20058;-62
2022/06/13 05:00:29;;;;;;;11.80;2.97;;;;;;;;;;4975152;28;20082;-64
2022/06/13 05:02:55;;;;;;;15.45;3.00;;;;;;;;;;4975118;28;20097;-63
2022/06/13 05:05:36;;;;;;;14.68;3.00;;;;;;;;;;4975734;28;20081;-63
2022/06/13 05:08:27;;;;;;;14.05;2.55;;;;;;;;;;4973690;28;20050;-63
2022/06/13 05:11:06;;;;;;;12.80;2.42;;;;;;;;;;4977585;28;20094;-51
2022/06/13 05:13:33;;;;;;;10.23;2.53;;;;;;;;;;4977515;28;20133;-48
2022/06/13 05:16:15;;;;;;;17.65;2.95;;;;;;;;;;4976858;28;20070;-45
2022/06/13 05:19:07;;;;;;;12.32;2.72;;;;;;;;;;4975281;28;20055;-46
2022/06/13 05:21:41;;;;;;;17.60;3.03;;;;;;;;;;4977127;28;20078;-46
2022/06/13 05:24:20;;;;;;;11.07;2.78;;;;;;;;;;4975831;28;20105;-48
2022/06/13 05:26:46;;;;;;;9.95;2.33;;;;;;;;;;4977743;28;20058;-50
2022/06/13 05:29:13;;;;;;;17.15;3.05;;;;;;;;;;4974979;28;20089;-44
2022/06/13 05:31:46;;;;;;;15.88;2.72;;;;;;;;;;4973021;28;20089;-56
2022/06/13 05:34:19;;;;;;;12.60;2.70;;;;;;;;;;4978048;28;20558;-45
2022/06/13 05:36:45;;;;;;;11.73;2.70;;;;;;;;;;4980200;28;20124;-47
2022/06/13 05:39:19;;;;;;;8.82;2.55;;;;;;;;;;4981803;28;20117;-47
2022/06/13 05:41:45;;;;;;;10.30;2.47;;;;;;;;;;4977960;28;20175;-46
2022/06/13 05:44:12;;;;;;;9.75;2.53;;;;;;;;;;4977066;28;20055;-46
2022/06/13 05:46:45;;;;;;;16.50;2.72;;;;;;;;;;4976638;28;20058;-50
2022/06/13 05:49:12;;;;;;;13.38;2.97;;;;;;;;;;4978637;28;20114;-51
2022/06/13 05:51:39;;;;;;;;;;;;;;;;;;4979206;28;20086;-49
2022/06/13 05:54:18;;;;;;;12.73;2.28;;;;;;;;;;4977005;28;20533;-59
2022/06/13 05:56:44;;;;;;;11.05;2.97;;;;;;;;;;4978253;28;20058;-59
2022/06/13 05:59:11;;;;;;;21.27;2.72;;;;;;;;;;4964252;28;20182;-58
2022/06/13 06:01:45;;;;;;;10.80;2.70;;;;;;;;;;4981628;28;20518;-58
2022/06/13 06:04:11;;;;;;;16.40;3.05;;;;;;;;;;4983281;28;20462;-59
2022/06/13 06:06:38;;;;;;;13.73;2.53;;;;;;;;;;4979883;28;20105;-59
2022/06/13 06:09:12;;;;;;;13.43;2.45;;;;;;;;;;4975790;28;20054;-54
2022/06/13 06:11:39;;;;;;;15.65;2.67;;;;;;;;;;4978603;28;20528;-46
2022/06/13 06:14:06;;;;;;;8.48;2.28;;;;;;;;;;4978627;28;20414;-45
2022/06/13 06:16:39;;;;;;;11.68;2.40;;;;;;;;;;4977238;28;20090;-44
2022/06/13 06:19:05;;;;;;;12.88;2.50;;;;;;;;;;4979200;28;20050;-45
2022/06/13 16:51:46;;;;;;;11.05;2.60;;;;;;;;;;4987937;28;20414;-74
2022/06/13 16:54:28;;;;;;;13.90;2.88;;;;;;;;;;4994024;28;20073;-74
2022/06/13 16:56:54;;;;;;;12.25;2.53;;;;;;;;;;4992760;28;20144;-49
2022/06/13 16:59:28;;;;;;;15.02;3.13;;;;;;;;;;4993070;28;20053;-58
2022/06/13 17:01:57;;;;;;;12.45;3.17;;;;;;;;;;4991455;28;20054;-58
2022/06/13 17:04:32;;;;;;;10.55;2.80;;;;;;;;;;4991624;28;20050;-57
2022/06/13 17:07:22;;;;;;;14.73;3.17;;;;;;;;;;4990308;28;20104;-58
2022/06/13 17:09:57;;;;;;;14.77;3.28;;;;;;;;;;4989696;28;20050;-58
2022/06/13 17:12:46;;;;;;;10.68;2.63;;;;;;;;;;4989826;28;20086;-59
2022/06/13 17:15:13;;;;;;;11.63;2.70;;;;;;;;;;4992562;28;20078;-73
2022/06/13 17:17:48;;;;;;;9.88;2.67;;;;;;;;;;4993971;28;20081;-50
2022/06/13 17:20:14;;;;;;;;;;;;;;;;;;4992226;28;20085;-49
2022/06/13 17:22:42;;;;;;;10.25;3.22;;;;;;;;;;4989634;28;19988;-52
2022/06/13 17:25:16;;;;;;;10.65;2.90;;;;;;;;;;4989597;28;20140;-50
2022/06/13 17:33:21;;;;;;;16.58;3.08;;;;;;;;;;4992790;28;20051;-45
2022/06/13 17:35:56;;;;;;;15.05;3.10;;;;;;;;;;4996517;28;20050;-47
2022/06/13 17:38:22;;;;;;;18.10;3.25;;;;;;;;;;4995043;28;20108;-47
2022/06/13 17:40:48;;;;;;;17.02;3.35;;;;;;;;;;4996752;28;20078;-49
2022/06/13 17:43:22;;;;;;;9.85;2.85;;;;;;;;;;4994059;28;20596;-46
2022/06/13 17:45:50;;;;;;;14.70;3.13;;;;;;;;;;4993744;28;20096;-45
2022/06/13 17:48:17;;;;;;;12.82;3.10;;;;;;;;;;4998220;28;20502;-48
2022/06/13 17:50:58;;;;;;;18.30;3.28;;;;;;;;;;4995653;28;20082;-48
2022/06/13 17:53:24;;;;;;;15.45;3.28;;;;;;;;;;4995199;28;20141;-61
2022/06/13 17:55:59;;;;;;;13.70;3.20;;;;;;;;;;4998500;28;20075;-72
2022/06/13 17:58:25;;;;;;;19.17;3.40;;;;;;;;;;4995595;28;20190;-71
2022/06/13 18:00:52;;;;;;;15.70;3.35;;;;;;;;;;4991775;28;20516;-71
2022/06/13 18:03:28;;;;;;;12.77;3.03;;;;;;;;;;4994247;28;21152;-71
2022/06/13 18:05:54;;;;;;;;;;;;;;;;;;4994928;28;20131;-72
2022/06/13 18:08:27;;;;;;;20.33;3.97;;;;;;;;;;4996553;28;19925;-72
2022/06/13 18:11:01;;;;;;;16.80;3.90;;;;;;;;;;4995944;28;20482;-47
2022/06/13 18:13:27;;;;;;;13.63;3.30;;;;;;;;;;4992648;28;20620;-57
2022/06/13 18:15:54;;;;;;;11.35;3.30;;;;;;;;;;4996743;28;20124;-58
2022/06/13 18:18:31;;;;;;;17.17;3.75;;;;;;;;;;4991230;28;20054;-57
2022/06/13 18:20:58;;;;;;;12.27;2.92;;;;;;;;;;4994489;28;20127;-57
2022/06/13 18:23:25;;;;;;;11.80;3.35;;;;;;;;;;4994609;28;20128;-58
2022/06/13 18:25:58;;;;;;;16.15;3.00;;;;;;;;;;4996981;28;20084;-58
2022/06/13 18:28:25;;;;;;;20.05;3.80;;;;;;;;;;4992796;28;20466;-57
2022/06/13 18:30:52;;;;;;;16.67;3.83;;;;;;;;;;4993624;28;20140;-64
2022/06/13 18:33:26;;;;;;;18.48;3.95;;;;;;;;;;4995213;28;20053;-53
2022/06/13 18:35:52;;;;;;;20.95;3.70;;;;;;;;;;4992363;28;20325;-47
2022/06/13 18:38:19;;;;;;;15.77;4.10;;;;;;;;;;4994514;28;20085;-46
2022/06/13 18:40:54;;;;;;;17.73;4.22;;;;;;;;;;4993750;28;20078;-47
2022/06/13 18:43:20;;;;;;;16.65;3.97;;;;;;;;;;4998819;28;20567;-44
2022/06/13 18:45:47;;;;;;;20.97;4.83;;;;;;;;;;4993296;28;20137;-47
2022/06/13 18:48:20;;;;;;;11.63;3.92;;;;;;;;;;4994898;28;20337;-49
2022/06/13 18:50:53;;;;;;;18.35;4.43;;;;;;;;;;4996682;28;20147;-51
2022/06/13 18:53:34;;;;;;;16.77;4.15;;;;;;;;;;4995400;28;20106;-56
2022/06/13 18:56:00;;;;;;;20.35;3.70;;;;;;;;;;4998284;28;20166;-59
2022/06/13 18:58:39;;;;;;;17.75;4.15;;;;;;;;;;4993251;28;20071;-57
2022/06/13 19:01:06;;;;;;;23.77;4.65;;;;;;;;;;4994634;28;20054;-59
2022/06/13 19:03:35;;;;;;;15.45;4.25;;;;;;;;;;4993567;28;20050;-58
2022/06/13 19:06:10;;;;;;;23.23;4.15;;;;;;;;;;4995351;28;20050;-57
2022/06/13 19:08:36;;;;;;;19.75;4.00;;;;;;;;;;4993037;28;20089;-57
2022/06/13 19:11:05;;;;;;;22.40;4.80;;;;;;;;;;4993166;28;20049;-64
2022/06/13 19:13:41;;;;;;;18.58;5.07;;;;;;;;;;4994015;28;20085;-64
2022/06/13 19:16:11;;;;;;;15.60;3.85;;;;;;;;;;4993569;28;20702;-63
2022/06/13 19:18:38;;;;;;;18.35;4.30;;;;;;;;;;4994240;28;20069;-64
2022/06/13 19:21:12;;;;;;;17.88;4.70;;;;;;;;;;4979255;28;20477;-63
2022/06/13 19:23:39;;;;;;;23.48;4.85;;;;;;;;;;4992036;28;20085;-63
2022/06/13 19:26:06;;;;;;;15.73;4.40;;;;;;;;;;4995511;28;20298;-63
2022/06/13 19:28:42;;;;;;;24.33;4.53;;;;;;;;;;4993134;28;20061;-46
2022/06/13 19:31:10;;;;;;;24.75;4.90;;;;;;;;;;4994306;28;20086;-67
2022/06/13 19:33:37;;;;;;;19.33;4.68;;;;;;;;;;4996122;28;20072;-67
2022/06/13 19:36:11;;;;;;;23.55;5.57;;;;;;;;;;4994149;28;20073;-68
2022/06/13 19:38:38;;;;;;;29.13;5.38;;;;;;;;;;4990739;28;20144;-67
2022/06/13 19:41:12;;;;;;;30.00;5.25;;;;;;;;;;4993522;28;20067;-68
2022/06/13 19:43:38;;;;;;;;;;;;;;;;;;4994278;28;20054;-67
2022/06/13 19:46:05;;;;;;;23.55;4.85;;;;;;;;;;4991520;28;20040;-63
2022/06/13 19:48:38;;;;;;;26.60;5.43;;;;;;;;;;4993299;28;20498;-45
2022/06/13 19:51:16;;;;;;;24.33;5.10;;;;;;;;;;4994204;28;20058;-50
2022/06/13 19:53:57;;;;;;;25.02;5.03;;;;;;;;;;4984928;28;20137;-47
2022/06/13 19:56:26;;;;;;;21.60;4.85;;;;;;;;;;4992975;28;20460;-48
2022/06/13 19:59:01;;;;;;;21.92;4.88;;;;;;;;;;4993602;28;20082;-52
2022/06/13 20:01:30;;;;;;;19.13;4.40;;;;;;;;;;4993495;28;20123;-51
2022/06/13 20:03:58;;;;;;;24.45;5.15;;;;;;;;;;4991753;28;20243;-50
2022/06/13 20:09:25;;;;;;;26.50;5.03;;;;;;;;;;4993532;28;20043;-48
2022/06/13 20:12:18;;;;;;;18.30;4.93;;;;;;;;;;4990573;28;20048;-45
2022/06/13 20:14:45;;;;;;;20.77;5.00;;;;;;;;;;4992715;28;20116;-48
2022/06/13 20:17:18;;;;;;;19.13;4.90;;;;;;;;;;4992555;28;20499;-45
2022/06/13 20:19:45;;;;;;;28.90;5.88;;;;;;;;;;4995323;28;20104;-46
2022/06/13 20:22:12;;;;;;;28.42;5.22;;;;;;;;;;4991571;28;20109;-47
2022/06/13 20:24:45;;;;;;;21.05;4.97;;;;;;;;;;4992199;28;20353;-53
2022/06/13 20:27:12;;;;;;;30.00;4.95;;;;;;;;;;4992568;28;20174;-56
2022/06/13 20:29:38;;;;;;;21.95;4.57;;;;;;;;;;4992677;28;20133;-46
2022/06/13 20:32:11;;;;;;;22.23;4.97;;;;;;;;;;4992872;28;20085;-48
2022/06/13 20:34:39;;;;;;;22.17;4.93;;;;;;;;;;4994865;28;20108;-49
2022/06/13 20:37:09;;;;;;;19.95;4.53;;;;;;;;;;4991940;28;20109;-51
2022/06/13 20:39:47;;;;;;;26.15;5.25;;;;;;;;;;4991547;28;20131;-48
2022/06/13 20:42:14;;;;;;;27.27;5.07;;;;;;;;;;4991820;28;20132;-52
2022/06/13 20:44:44;;;;;;;28.42;6.45;;;;;;;;;;4995191;28;20090;-48
2022/06/13 20:47:17;;;;;;;19.23;5.47;;;;;;;;;;4992803;28;20051;-66
2022/06/13 20:49:45;;;;;;;27.65;5.45;;;;;;;;;;4993712;28;20304;-66
2022/06/13 20:52:18;;;;;;;24.08;5.35;;;;;;;;;;4991649;28;20865;-66
2022/06/13 20:54:52;;;;;;;22.95;5.80;;;;;;;;;;4992997;28;20132;-66
2022/06/13 20:57:18;;;;;;;28.42;5.05;;;;;;;;;;4991436;28;20090;-66
2022/06/13 20:59:45;;;;;;;24.20;5.40;;;;;;;;;;4993391;28;20112;-66
2022/06/13 21:02:19;;;;;;;29.48;6.25;;;;;;;;;;4992113;28;20077;-53
2022/06/13 21:04:50;;;;;;;28.70;6.22;;;;;;;;;;4993683;28;20609;-67
2022/06/13 21:07:18;;;;;;;30.90;5.40;;;;;;;;;;4992233;28;20193;-44
2022/06/13 21:10:08;;;;;;;20.70;5.03;;;;;;;;;;4991977;28;20216;-44
2022/06/13 21:12:38;;;;;;;23.50;5.30;;;;;;;;;;4992893;28;20062;-45
2022/06/13 21:15:19;;;;;;;29.17;5.90;;;;;;;;;;4992910;28;20165;-43
2022/06/13 21:17:46;;;;;;;23.38;5.50;;;;;;;;;;4993696;28;20093;-44
2022/06/13 21:20:20;;;;;;;29.52;5.55;;;;;;;;;;4992129;28;20197;-44
2022/06/13 21:22:47;;;;;;;27.50;5.40;;;;;;;;;;4987979;28;20557;-59
2022/06/13 21:25:17;;;;;;;36.07;6.37;;;;;;;;;;4993925;28;20141;-59
2022/06/13 21:27:51;;;;;;;25.58;5.70;;;;;;;;;;4993414;28;20136;-65
2022/06/13 21:30:17;;;;;;;;;;;;;;;;;;4993161;28;20540;-65
2022/06/13 21:32:44;;;;;;;29.80;7.03;;;;;;;;;;4994888;28;19980;-65
2022/06/13 21:35:18;;;;;;;25.92;5.88;;;;;;;;;;4994683;28;20046;-65
2022/06/13 21:37:44;;;;;;;23.33;5.90;;;;;;;;;;4992200;28;20362;-65
2022/06/13 21:40:15;;;;;;;25.02;6.07;;;;;;;;;;4995459;28;20124;-65
2022/06/13 21:42:49;;;;;;;23.67;5.63;;;;;;;;;;4994138;28;20086;-66
2022/06/13 21:45:16;;;;;;;23.90;5.30;;;;;;;;;;4994900;28;20081;-46
2022/06/13 21:47:43;;;;;;;19.80;4.82;;;;;;;;;;4995663;28;20066;-43
2022/06/13 21:50:30;;;;;;;33.92;5.75;;;;;;;;;;4994017;28;20594;-45
2022/06/13 21:53:04;;;;;;;28.30;6.13;;;;;;;;;;4993252;28;20055;-45
2022/06/13 21:55:37;;;;;;;22.30;5.55;;;;;;;;;;4993411;28;20085;-45
2022/06/13 21:58:04;;;;;;;26.50;5.30;;;;;;;;;;4995356;28;20090;-45
2022/06/13 22:00:31;;;;;;;24.23;5.73;;;;;;;;;;4994863;28;20059;-50
2022/06/13 22:03:05;;;;;;;23.38;5.70;;;;;;;;;;4993682;28;20866;-56
2022/06/13 22:05:32;;;;;;;31.05;6.97;;;;;;;;;;4994590;28;20053;-52
2022/06/13 22:07:58;;;;;;;25.83;5.63;;;;;;;;;;4994762;28;20065;-52
2022/06/13 22:10:31;;;;;;;26.08;5.90;;;;;;;;;;4995909;28;20234;-53
2022/06/13 22:13:00;;;;;;;28.95;5.95;;;;;;;;;;4994320;28;20081;-54
2022/06/13 22:15:27;;;;;;;27.58;5.90;;;;;;;;;;4995638;28;20109;-53
2022/06/13 22:18:00;;;;;;;20.60;5.25;;;;;;;;;;4997888;28;20147;-53
2022/06/13 22:20:26;;;;;;;26.67;6.25;;;;;;;;;;4994653;28;22434;-57
2022/06/13 22:22:53;;;;;;;25.50;6.30;;;;;;;;;;4995140;28;20046;-52
2022/06/13 22:25:26;;;;;;;26.73;5.72;;;;;;;;;;5000216;28;20141;-49
2022/06/13 22:27:52;;;;;;;32.10;5.95;;;;;;;;;;4996628;28;20315;-51
2022/06/13 22:30:19;;;;;;;30.33;6.60;;;;;;;;;;4997727;28;20050;-52
2022/06/13 22:32:53;;;;;;;27.17;5.60;;;;;;;;;;4995699;28;20213;-53
2022/06/13 22:35:20;;;;;;;37.03;6.30;;;;;;;;;;4997872;28;20077;-51
2022/06/13 22:37:46;;;;;;;24.23;6.07;;;;;;;;;;5000097;28;20054;-49
2022/06/13 22:40:20;;;;;;;26.48;5.60;;;;;;;;;;4998146;28;20085;-45
2022/06/13 22:42:47;;;;;;;32.03;6.93;;;;;;;;;;4997237;28;20077;-60
2022/06/13 22:45:13;;;;;;;27.90;6.32;;;;;;;;;;4998178;28;20521;-59
2022/06/13 22:50:38;;;;;;;29.15;6.70;;;;;;;;;;4995934;28;20112;-59
2022/06/13 22:53:18;;;;;;;28.00;6.38;;;;;;;;;;4996722;28;20161;-59
2022/06/13 22:55:45;;;;;;;29.67;6.50;;;;;;;;;;4998864;28;20132;-60
2022/06/13 22:58:11;;;;;;;37.13;5.82;;;;;;;;;;4997598;28;20100;-47
2022/06/13 23:00:44;;;;;;;32.13;6.72;;;;;;;;;;4995264;28;20077;-45
2022/06/13 23:03:10;;;;;;;33.95;6.30;;;;;;;;;;4997669;28;20092;-47
2022/06/13 23:05:37;;;;;;;29.85;6.50;;;;;;;;;;4995472;28;20058;-44
2022/06/13 23:08:10;;;;;;;30.40;6.55;;;;;;;;;;4996791;28;20054;-43
2022/06/13 23:10:37;;;;;;;32.33;6.32;;;;;;;;;;4997776;28;20440;-44
2022/06/13 23:13:03;;;;;;;29.05;6.78;;;;;;;;;;4995726;28;20517;-45
2022/06/13 23:15:36;;;;;;;29.20;6.90;;;;;;;;;;4997638;28;20522;-49
2022/06/13 23:18:02;;;;;;;34.20;7.03;;;;;;;;;;4997232;28;20109;-52
2022/06/13 23:20:29;;;;;;;31.35;6.03;;;;;;;;;;4997500;28;20049;-48
2022/06/13 23:23:02;;;;;;;26.02;5.90;;;;;;;;;;4996784;28;20105;-52
2022/06/13 23:25:28;;;;;;;36.53;7.28;;;;;;;;;;4995592;28;20121;-50
2022/06/13 23:27:56;;;;;;;29.10;6.30;;;;;;;;;;4996221;28;20133;-51
2022/06/13 23:30:29;;;;;;;36.92;6.80;;;;;;;;;;4994952;28;20702;-53
2022/06/13 23:32:55;;;;;;;35.75;6.40;;;;;;;;;;4995732;28;20391;-51
2022/06/13 23:35:22;;;;;;;29.20;6.55;;;;;;;;;;5000252;28;20090;-59
2022/06/13 23:37:55;;;;;;;31.17;6.28;;;;;;;;;;4996330;28;20078;-48
2022/06/13 23:40:21;;;;;;;27.15;6.03;;;;;;;;;;4996546;28;20050;-62
2022/06/13 23:42:48;;;;;;;32.20;6.55;;;;;;;;;;4995151;28;20576;-62
2022/06/13 23:45:21;;;;;;;43.03;6.85;;;;;;;;;;4995448;28;20081;-62
2022/06/13 23:47:47;;;;;;;33.50;6.60;;;;;;;;;;4999309;28;20161;-62
2022/06/13 23:53:14;;;;;;;37.47;7.35;;;;;;;;;;4976861;28;20074;-62
2022/06/13 23:55:41;;;;;;;31.02;6.50;;;;;;;;;;4977034;28;20078;-62
2022/06/13 23:58:15;;;;;;;32.95;7.22;;;;;;;;;;4975610;28;20454;-46
